sensor_id;sensor_type;location;lat;lon;timestamp;temperature;humidity
27803;DHT22;15182;48.174;11.562;2023-10-19T00:00:49;14.10;93.40
27803;DHT22;15182;48.174;11.562;2023-10-19T00:03:18;14.10;93.50
27803;DHT22;15182;48.174;11.562;2023-10-19T00:05:46;14.10;93.60
27803;DHT22;15182;48.174;11.562;2023-10-19T00:08:13;14.10;93.60
27803;DHT22;15182;48.174;11.562;2023-10-19T00:10:47;14.00;93.50
27803;DHT22;15182;48.174;11.562;2023-10-19T00:13:20;14.00;93.50
27803;DHT22;15182;48.174;11.562;2023-10-19T00:15:48;14.00;93.50
27803;DHT22;15182;48.174;11.562;2023-10-19T00:18:19;14.00;93.50
27803;DHT22;15182;48.174;11.562;2023-10-19T00:20:50;14.00;93.60
27803;DHT22;15182;48.174;11.562;2023-10-19T00:23:19;14.00;93.60
27803;DHT22;15182;48.174;11.562;2023-10-19T00:25:55;14.00;93.60
27803;DHT22;15182;48.174;11.562;2023-10-19T00:28:23;14.00;93.60
27803;DHT22;15182;48.174;11.562;2023-10-19T00:30:53;14.00;93.60
27803;DHT22;15182;48.174;11.562;2023-10-19T00:33:28;14.00;93.60
27803;DHT22;15182;48.174;11.562;2023-10-19T00:35:58;14.00;93.60
27803;DHT22;15182;48.174;11.562;2023-10-19T00:38:34;14.00;93.60
27803;DHT22;15182;48.174;11.562;2023-10-19T00:41:14;14.00;93.60
27803;DHT22;15182;48.174;11.562;2023-10-19T00:43:47;14.00;94.00
27803;DHT22;15182;48.174;11.562;2023-10-19T00:46:17;14.00;94.10
27803;DHT22;15182;48.174;11.562;2023-10-19T00:48:52;14.00;93.70
27803;DHT22;15182;48.174;11.562;2023-10-19T00:51:25;14.00;93.80
27803;DHT22;15182;48.174;11.562;2023-10-19T00:54:06;14.00;93.80
27803;DHT22;15182;48.174;11.562;2023-10-19T00:56:37;14.00;93.80
27803;DHT22;15182;48.174;11.562;2023-10-19T00:59:07;14.00;93.80
27803;DHT22;15182;48.174;11.562;2023-10-19T01:01:41;14.00;93.80
27803;DHT22;15182;48.174;11.562;2023-10-19T01:04:13;14.00;93.70
27803;DHT22;15182;48.174;11.562;2023-10-19T01:06:43;14.00;93.60
27803;DHT22;15182;48.174;11.562;2023-10-19T01:09:26;14.00;93.60
27803;DHT22;15182;48.174;11.562;2023-10-19T01:11:54;14.00;93.60
27803;DHT22;15182;48.174;11.562;2023-10-19T01:14:27;14.00;93.70
27803;DHT22;15182;48.174;11.562;2023-10-19T01:16:56;14.00;94.10
27803;DHT22;15182;48.174;11.562;2023-10-19T01:19:26;14.00;93.70
27803;DHT22;15182;48.174;11.562;2023-10-19T01:21:54;14.00;93.80
27803;DHT22;15182;48.174;11.562;2023-10-19T01:24:29;14.00;93.80
27803;DHT22;15182;48.174;11.562;2023-10-19T01:27:06;14.00;93.70
27803;DHT22;15182;48.174;11.562;2023-10-19T01:29:36;13.90;93.70
27803;DHT22;15182;48.174;11.562;2023-10-19T01:32:07;13.90;93.80
27803;DHT22;15182;48.174;11.562;2023-10-19T01:34:35;13.90;94.20
27803;DHT22;15182;48.174;11.562;2023-10-19T01:37:03;13.90;93.90
27803;DHT22;15182;48.174;11.562;2023-10-19T01:39:33;13.90;93.90
27803;DHT22;15182;48.174;11.562;2023-10-19T01:42:03;13.90;94.10
27803;DHT22;15182;48.174;11.562;2023-10-19T01:44:31;13.90;94.10
27803;DHT22;15182;48.174;11.562;2023-10-19T01:47:02;13.90;94.10
27803;DHT22;15182;48.174;11.562;2023-10-19T01:49:32;13.90;94.00
27803;DHT22;15182;48.174;11.562;2023-10-19T01:51:59;13.90;94.00
27803;DHT22;15182;48.174;11.562;2023-10-19T01:54:27;13.90;94.40
27803;DHT22;15182;48.174;11.562;2023-10-19T01:56:56;13.80;94.00
27803;DHT22;15182;48.174;11.562;2023-10-19T01:59:23;13.80;94.10
27803;DHT22;15182;48.174;11.562;2023-10-19T02:01:54;13.80;94.10
27803;DHT22;15182;48.174;11.562;2023-10-19T02:04:22;13.80;94.10
27803;DHT22;15182;48.174;11.562;2023-10-19T02:06:52;13.80;94.20
27803;DHT22;15182;48.174;11.562;2023-10-19T02:09:19;13.80;94.20
27803;DHT22;15182;48.174;11.562;2023-10-19T02:11:54;13.80;94.30
27803;DHT22;15182;48.174;11.562;2023-10-19T02:14:26;13.80;94.30
27803;DHT22;15182;48.174;11.562;2023-10-19T02:16:57;13.80;94.30
27803;DHT22;15182;48.174;11.562;2023-10-19T02:19:26;13.80;94.20
27803;DHT22;15182;48.174;11.562;2023-10-19T02:24:28;13.80;94.40
27803;DHT22;15182;48.174;11.562;2023-10-19T02:26:58;13.80;94.30
27803;DHT22;15182;48.174;11.562;2023-10-19T02:29:26;13.70;94.40
27803;DHT22;15182;48.174;11.562;2023-10-19T02:31:55;13.70;94.40
27803;DHT22;15182;48.174;11.562;2023-10-19T02:34:22;13.70;94.40
27803;DHT22;15182;48.174;11.562;2023-10-19T02:36:50;13.70;94.40
27803;DHT22;15182;48.174;11.562;2023-10-19T02:39:18;13.70;94.50
27803;DHT22;15182;48.174;11.562;2023-10-19T02:41:47;13.70;94.50
27803;DHT22;15182;48.174;11.562;2023-10-19T02:44:18;13.80;94.60
27803;DHT22;15182;48.174;11.562;2023-10-19T02:46:49;13.70;94.60
27803;DHT22;15182;48.174;11.562;2023-10-19T02:49:19;13.80;94.60
27803;DHT22;15182;48.174;11.562;2023-10-19T02:51:49;13.80;95.00
27803;DHT22;15182;48.174;11.562;2023-10-19T02:54:19;13.80;95.00
27803;DHT22;15182;48.174;11.562;2023-10-19T02:56:50;13.80;94.60
27803;DHT22;15182;48.174;11.562;2023-10-19T02:59:21;13.80;94.60
27803;DHT22;15182;48.174;11.562;2023-10-19T03:01:49;13.80;94.60
27803;DHT22;15182;48.174;11.562;2023-10-19T03:04:18;13.80;94.50
27803;DHT22;15182;48.174;11.562;2023-10-19T03:06:45;13.90;94.90
27803;DHT22;15182;48.174;11.562;2023-10-19T03:09:14;13.90;94.50
27803;DHT22;15182;48.174;11.562;2023-10-19T03:11:42;13.90;94.50
27803;DHT22;15182;48.174;11.562;2023-10-19T03:14:11;13.90;94.50
27803;DHT22;15182;48.174;11.562;2023-10-19T03:16:40;13.90;94.50
27803;DHT22;15182;48.174;11.562;2023-10-19T03:19:08;13.90;95.00
27803;DHT22;15182;48.174;11.562;2023-10-19T03:21:36;13.90;94.60
27803;DHT22;15182;48.174;11.562;2023-10-19T03:24:08;13.90;94.60
27803;DHT22;15182;48.174;11.562;2023-10-19T03:26:49;13.90;94.70
27803;DHT22;15182;48.174;11.562;2023-10-19T03:29:16;13.90;94.60
27803;DHT22;15182;48.174;11.562;2023-10-19T03:31:50;13.90;94.60
27803;DHT22;15182;48.174;11.562;2023-10-19T03:34:19;13.90;94.70
27803;DHT22;15182;48.174;11.562;2023-10-19T03:36:50;13.90;94.70
27803;DHT22;15182;48.174;11.562;2023-10-19T03:39:18;13.90;94.80
27803;DHT22;15182;48.174;11.562;2023-10-19T03:41:47;13.90;94.80
27803;DHT22;15182;48.174;11.562;2023-10-19T03:44:17;13.90;94.80
27803;DHT22;15182;48.174;11.562;2023-10-19T03:46:52;13.90;94.90
27803;DHT22;15182;48.174;11.562;2023-10-19T03:49:24;13.90;94.90
27803;DHT22;15182;48.174;11.562;2023-10-19T03:51:57;13.90;94.90
27803;DHT22;15182;48.174;11.562;2023-10-19T03:54:40;13.90;94.90
27803;DHT22;15182;48.174;11.562;2023-10-19T03:57:09;14.00;95.30
27803;DHT22;15182;48.174;11.562;2023-10-19T03:59:38;14.00;95.00
27803;DHT22;15182;48.174;11.562;2023-10-19T04:02:07;14.00;95.00
27803;DHT22;15182;48.174;11.562;2023-10-19T04:04:36;14.00;95.10
27803;DHT22;15182;48.174;11.562;2023-10-19T04:07:05;14.00;95.00
27803;DHT22;15182;48.174;11.562;2023-10-19T04:09:40;14.00;95.10
27803;DHT22;15182;48.174;11.562;2023-10-19T04:12:23;14.00;95.10
27803;DHT22;15182;48.174;11.562;2023-10-19T04:14:51;14.00;95.10
27803;DHT22;15182;48.174;11.562;2023-10-19T04:17:20;14.00;95.10
27803;DHT22;15182;48.174;11.562;2023-10-19T04:19:50;14.00;95.20
27803;DHT22;15182;48.174;11.562;2023-10-19T04:22:19;14.00;95.20
27803;DHT22;15182;48.174;11.562;2023-10-19T04:24:50;14.00;95.10
27803;DHT22;15182;48.174;11.562;2023-10-19T04:27:18;14.10;95.20
27803;DHT22;15182;48.174;11.562;2023-10-19T04:29:49;14.10;95.30
27803;DHT22;15182;48.174;11.562;2023-10-19T04:32:17;14.10;95.40
27803;DHT22;15182;48.174;11.562;2023-10-19T04:34:52;14.10;95.40
27803;DHT22;15182;48.174;11.562;2023-10-19T04:37:20;14.10;95.40
27803;DHT22;15182;48.174;11.562;2023-10-19T04:39:50;14.10;95.80
27803;DHT22;15182;48.174;11.562;2023-10-19T04:42:18;14.10;95.50
27803;DHT22;15182;48.174;11.562;2023-10-19T04:44:49;14.10;95.50
27803;DHT22;15182;48.174;11.562;2023-10-19T04:47:16;14.10;95.50
27803;DHT22;15182;48.174;11.562;2023-10-19T04:49:44;14.20;95.60
27803;DHT22;15182;48.174;11.562;2023-10-19T04:52:13;14.20;95.60
27803;DHT22;15182;48.174;11.562;2023-10-19T04:54:41;14.20;95.70
27803;DHT22;15182;48.174;11.562;2023-10-19T04:57:09;14.20;95.70
27803;DHT22;15182;48.174;11.562;2023-10-19T04:59:38;14.20;95.70
27803;DHT22;15182;48.174;11.562;2023-10-19T05:02:05;14.20;95.70
27803;DHT22;15182;48.174;11.562;2023-10-19T05:04:33;14.20;95.80
27803;DHT22;15182;48.174;11.562;2023-10-19T05:07:02;14.30;95.80
27803;DHT22;15182;48.174;11.562;2023-10-19T05:09:32;14.30;95.80
27803;DHT22;15182;48.174;11.562;2023-10-19T05:12:00;14.30;96.10
27803;DHT22;15182;48.174;11.562;2023-10-19T05:14:28;14.30;95.80
27803;DHT22;15182;48.174;11.562;2023-10-19T05:16:56;14.30;95.80
27803;DHT22;15182;48.174;11.562;2023-10-19T05:19:24;14.30;95.90
27803;DHT22;15182;48.174;11.562;2023-10-19T05:21:52;14.30;96.30
27803;DHT22;15182;48.174;11.562;2023-10-19T05:24:20;14.40;95.90
27803;DHT22;15182;48.174;11.562;2023-10-19T05:26:49;14.40;95.90
27803;DHT22;15182;48.174;11.562;2023-10-19T05:29:17;14.40;96.00
27803;DHT22;15182;48.174;11.562;2023-10-19T05:31:45;14.40;96.00
27803;DHT22;15182;48.174;11.562;2023-10-19T05:34:12;14.40;96.00
27803;DHT22;15182;48.174;11.562;2023-10-19T05:36:42;14.40;96.00
27803;DHT22;15182;48.174;11.562;2023-10-19T05:39:12;14.40;96.00
27803;DHT22;15182;48.174;11.562;2023-10-19T05:41:40;14.40;96.00
27803;DHT22;15182;48.174;11.562;2023-10-19T05:44:09;14.40;96.00
27803;DHT22;15182;48.174;11.562;2023-10-19T05:46:37;14.40;96.10
27803;DHT22;15182;48.174;11.562;2023-10-19T05:49:07;14.40;96.10
27803;DHT22;15182;48.174;11.562;2023-10-19T05:51:34;14.40;96.10
27803;DHT22;15182;48.174;11.562;2023-10-19T05:54:03;14.40;96.10
27803;DHT22;15182;48.174;11.562;2023-10-19T05:56:31;14.40;96.10
27803;DHT22;15182;48.174;11.562;2023-10-19T05:59:00;14.40;96.10
27803;DHT22;15182;48.174;11.562;2023-10-19T06:01:29;14.40;96.10
27803;DHT22;15182;48.174;11.562;2023-10-19T06:03:57;14.40;96.20
27803;DHT22;15182;48.174;11.562;2023-10-19T06:06:25;14.40;96.20
27803;DHT22;15182;48.174;11.562;2023-10-19T06:08:53;14.40;96.20
27803;DHT22;15182;48.174;11.562;2023-10-19T06:11:21;14.40;96.20
27803;DHT22;15182;48.174;11.562;2023-10-19T06:13:49;14.40;96.20
27803;DHT22;15182;48.174;11.562;2023-10-19T06:16:18;14.40;96.30
27803;DHT22;15182;48.174;11.562;2023-10-19T06:18:48;14.40;96.30
27803;DHT22;15182;48.174;11.562;2023-10-19T06:21:17;14.40;96.30
27803;DHT22;15182;48.174;11.562;2023-10-19T06:23:46;14.40;96.30
27803;DHT22;15182;48.174;11.562;2023-10-19T06:26:14;14.50;96.30
27803;DHT22;15182;48.174;11.562;2023-10-19T06:28:42;14.40;96.30
27803;DHT22;15182;48.174;11.562;2023-10-19T06:31:09;14.50;96.40
27803;DHT22;15182;48.174;11.562;2023-10-19T06:33:37;14.50;96.40
27803;DHT22;15182;48.174;11.562;2023-10-19T06:36:08;14.50;96.50
27803;DHT22;15182;48.174;11.562;2023-10-19T06:38:36;14.50;96.50
27803;DHT22;15182;48.174;11.562;2023-10-19T06:41:10;14.50;96.50
27803;DHT22;15182;48.174;11.562;2023-10-19T06:43:39;14.50;96.60
27803;DHT22;15182;48.174;11.562;2023-10-19T06:46:08;14.50;96.50
27803;DHT22;15182;48.174;11.562;2023-10-19T06:48:37;14.50;96.60
27803;DHT22;15182;48.174;11.562;2023-10-19T06:51:05;14.50;96.70
27803;DHT22;15182;48.174;11.562;2023-10-19T06:53:34;14.50;96.70
27803;DHT22;15182;48.174;11.562;2023-10-19T06:56:02;14.50;96.80
27803;DHT22;15182;48.174;11.562;2023-10-19T06:58:31;14.50;96.80
27803;DHT22;15182;48.174;11.562;2023-10-19T07:00:58;14.60;96.80
27803;DHT22;15182;48.174;11.562;2023-10-19T07:03:31;14.60;96.80
27803;DHT22;15182;48.174;11.562;2023-10-19T07:05:59;14.60;96.90
27803;DHT22;15182;48.174;11.562;2023-10-19T07:08:28;14.60;96.90
27803;DHT22;15182;48.174;11.562;2023-10-19T07:10:58;14.70;96.90
27803;DHT22;15182;48.174;11.562;2023-10-19T07:13:26;14.70;97.00
27803;DHT22;15182;48.174;11.562;2023-10-19T07:15:55;14.70;97.00
27803;DHT22;15182;48.174;11.562;2023-10-19T07:18:23;14.80;97.10
27803;DHT22;15182;48.174;11.562;2023-10-19T07:20:52;14.80;97.10
27803;DHT22;15182;48.174;11.562;2023-10-19T07:23:26;14.90;97.20
27803;DHT22;15182;48.174;11.562;2023-10-19T07:25:55;14.90;97.10
27803;DHT22;15182;48.174;11.562;2023-10-19T07:28:27;15.00;97.20
27803;DHT22;15182;48.174;11.562;2023-10-19T07:30:55;15.00;97.30
27803;DHT22;15182;48.174;11.562;2023-10-19T07:33:23;15.00;97.30
27803;DHT22;15182;48.174;11.562;2023-10-19T07:35:52;15.10;97.70
27803;DHT22;15182;48.174;11.562;2023-10-19T07:38:21;15.20;97.30
27803;DHT22;15182;48.174;11.562;2023-10-19T07:40:49;15.20;97.40
27803;DHT22;15182;48.174;11.562;2023-10-19T07:43:19;15.20;97.80
27803;DHT22;15182;48.174;11.562;2023-10-19T07:45:49;15.30;97.50
27803;DHT22;15182;48.174;11.562;2023-10-19T07:48:18;15.40;97.60
27803;DHT22;15182;48.174;11.562;2023-10-19T07:50:46;15.40;97.50
27803;DHT22;15182;48.174;11.562;2023-10-19T07:53:14;15.50;97.50
27803;DHT22;15182;48.174;11.562;2023-10-19T07:55:43;15.50;97.60
27803;DHT22;15182;48.174;11.562;2023-10-19T07:58:11;15.60;97.70
27803;DHT22;15182;48.174;11.562;2023-10-19T08:00:39;15.70;97.70
27803;DHT22;15182;48.174;11.562;2023-10-19T08:03:10;15.70;97.60
27803;DHT22;15182;48.174;11.562;2023-10-19T08:05:39;15.70;97.60
27803;DHT22;15182;48.174;11.562;2023-10-19T08:08:07;15.80;97.60
27803;DHT22;15182;48.174;11.562;2023-10-19T08:10:35;15.90;97.70
27803;DHT22;15182;48.174;11.562;2023-10-19T08:13:03;15.90;98.10
27803;DHT22;15182;48.174;11.562;2023-10-19T08:15:31;16.00;97.70
27803;DHT22;15182;48.174;11.562;2023-10-19T08:17:59;16.00;97.70
27803;DHT22;15182;48.174;11.562;2023-10-19T08:20:28;16.10;97.90
27803;DHT22;15182;48.174;11.562;2023-10-19T08:22:58;16.10;98.10
27803;DHT22;15182;48.174;11.562;2023-10-19T08:25:27;16.20;98.20
27803;DHT22;15182;48.174;11.562;2023-10-19T08:27:55;16.20;98.10
27803;DHT22;15182;48.174;11.562;2023-10-19T08:30:24;16.20;98.20
27803;DHT22;15182;48.174;11.562;2023-10-19T08:32:52;16.30;98.30
27803;DHT22;15182;48.174;11.562;2023-10-19T08:35:21;16.30;98.40
27803;DHT22;15182;48.174;11.562;2023-10-19T08:37:53;16.40;98.90
27803;DHT22;15182;48.174;11.562;2023-10-19T08:40:24;16.50;98.60
27803;DHT22;15182;48.174;11.562;2023-10-19T08:42:53;16.50;98.70
27803;DHT22;15182;48.174;11.562;2023-10-19T08:45:21;16.60;98.80
27803;DHT22;15182;48.174;11.562;2023-10-19T08:47:55;16.60;98.90
27803;DHT22;15182;48.174;11.562;2023-10-19T08:50:24;16.70;99.10
27803;DHT22;15182;48.174;11.562;2023-10-19T08:52:55;16.70;99.00
27803;DHT22;15182;48.174;11.562;2023-10-19T08:55:26;16.80;99.10
27803;DHT22;15182;48.174;11.562;2023-10-19T08:57:54;16.80;99.10
27803;DHT22;15182;48.174;11.562;2023-10-19T09:00:22;16.90;99.10
27803;DHT22;15182;48.174;11.562;2023-10-19T09:02:51;16.90;99.00
27803;DHT22;15182;48.174;11.562;2023-10-19T09:05:20;17.00;99.10
27803;DHT22;15182;48.174;11.562;2023-10-19T09:07:49;17.00;99.20
27803;DHT22;15182;48.174;11.562;2023-10-19T09:10:22;17.00;99.20
27803;DHT22;15182;48.174;11.562;2023-10-19T09:12:59;17.00;99.20
27803;DHT22;15182;48.174;11.562;2023-10-19T09:15:29;17.10;99.60
27803;DHT22;15182;48.174;11.562;2023-10-19T09:17:59;17.10;99.70
27803;DHT22;15182;48.174;11.562;2023-10-19T09:20:40;17.10;99.40
27803;DHT22;15182;48.174;11.562;2023-10-19T09:23:08;17.20;99.90
27803;DHT22;15182;48.174;11.562;2023-10-19T09:25:38;17.20;99.60
27803;DHT22;15182;48.174;11.562;2023-10-19T09:28:06;17.30;99.60
27803;DHT22;15182;48.174;11.562;2023-10-19T09:30:37;17.30;99.30
27803;DHT22;15182;48.174;11.562;2023-10-19T09:33:05;17.30;99.20
27803;DHT22;15182;48.174;11.562;2023-10-19T09:35:35;17.30;99.30
27803;DHT22;15182;48.174;11.562;2023-10-19T09:38:04;17.40;99.40
27803;DHT22;15182;48.174;11.562;2023-10-19T09:40:32;17.40;99.10
27803;DHT22;15182;48.174;11.562;2023-10-19T09:43:04;17.40;99.10
27803;DHT22;15182;48.174;11.562;2023-10-19T09:45:41;17.40;99.20
27803;DHT22;15182;48.174;11.562;2023-10-19T09:48:10;17.40;99.30
27803;DHT22;15182;48.174;11.562;2023-10-19T09:50:44;17.50;99.30
27803;DHT22;15182;48.174;11.562;2023-10-19T09:53:23;17.50;99.20
27803;DHT22;15182;48.174;11.562;2023-10-19T09:55:54;17.50;99.40
27803;DHT22;15182;48.174;11.562;2023-10-19T09:58:28;17.50;99.70
27803;DHT22;15182;48.174;11.562;2023-10-19T10:01:00;17.60;99.80
27803;DHT22;15182;48.174;11.562;2023-10-19T10:03:50;17.70;99.60
27803;DHT22;15182;48.174;11.562;2023-10-19T10:06:27;17.70;99.90
27803;DHT22;15182;48.174;11.562;2023-10-19T10:08:56;17.80;99.90
27803;DHT22;15182;48.174;11.562;2023-10-19T10:11:27;17.90;99.90
27803;DHT22;15182;48.174;11.562;2023-10-19T10:13:57;18.00;99.90
27803;DHT22;15182;48.174;11.562;2023-10-19T10:16:26;18.10;99.90
27803;DHT22;15182;48.174;11.562;2023-10-19T10:18:56;18.20;99.70
27803;DHT22;15182;48.174;11.562;2023-10-19T10:21:27;18.20;99.50
27803;DHT22;15182;48.174;11.562;2023-10-19T10:23:57;18.30;99.80
27803;DHT22;15182;48.174;11.562;2023-10-19T10:26:27;18.40;99.40
27803;DHT22;15182;48.174;11.562;2023-10-19T10:29:14;18.40;99.50
27803;DHT22;15182;48.174;11.562;2023-10-19T10:31:47;18.50;99.60
27803;DHT22;15182;48.174;11.562;2023-10-19T10:34:43;18.50;99.50
27803;DHT22;15182;48.174;11.562;2023-10-19T10:37:11;18.50;99.60
27803;DHT22;15182;48.174;11.562;2023-10-19T10:39:41;18.60;99.40
27803;DHT22;15182;48.174;11.562;2023-10-19T10:42:11;18.60;99.30
27803;DHT22;15182;48.174;11.562;2023-10-19T10:44:42;18.60;99.30
27803;DHT22;15182;48.174;11.562;2023-10-19T10:47:15;18.70;99.70
27803;DHT22;15182;48.174;11.562;2023-10-19T10:49:51;18.70;99.20
27803;DHT22;15182;48.174;11.562;2023-10-19T10:52:27;18.70;99.30
27803;DHT22;15182;48.174;11.562;2023-10-19T10:54:56;18.70;99.20
27803;DHT22;15182;48.174;11.562;2023-10-19T10:57:31;18.70;99.30
27803;DHT22;15182;48.174;11.562;2023-10-19T11:00:08;18.80;99.30
27803;DHT22;15182;48.174;11.562;2023-10-19T11:02:42;18.80;99.40
27803;DHT22;15182;48.174;11.562;2023-10-19T11:05:13;18.80;99.40
27803;DHT22;15182;48.174;11.562;2023-10-19T11:08:03;18.80;99.40
27803;DHT22;15182;48.174;11.562;2023-10-19T11:10:33;18.80;99.60
27803;DHT22;15182;48.174;11.562;2023-10-19T11:13:02;18.90;99.50
27803;DHT22;15182;48.174;11.562;2023-10-19T11:15:31;18.90;99.60
27803;DHT22;15182;48.174;11.562;2023-10-19T11:18:00;18.90;99.50
27803;DHT22;15182;48.174;11.562;2023-10-19T11:20:29;19.00;99.60
27803;DHT22;15182;48.174;11.562;2023-10-19T11:22:57;19.00;99.50
27803;DHT22;15182;48.174;11.562;2023-10-19T11:25:28;19.10;99.30
27803;DHT22;15182;48.174;11.562;2023-10-19T11:27:57;19.10;99.30
27803;DHT22;15182;48.174;11.562;2023-10-19T11:30:27;19.20;99.10
27803;DHT22;15182;48.174;11.562;2023-10-19T11:32:58;19.20;98.90
27803;DHT22;15182;48.174;11.562;2023-10-19T11:35:28;19.20;98.90
27803;DHT22;15182;48.174;11.562;2023-10-19T11:37:59;19.30;98.80
27803;DHT22;15182;48.174;11.562;2023-10-19T11:40:28;19.30;98.70
27803;DHT22;15182;48.174;11.562;2023-10-19T11:42:57;19.30;98.70
27803;DHT22;15182;48.174;11.562;2023-10-19T11:45:26;19.30;98.70
27803;DHT22;15182;48.174;11.562;2023-10-19T11:47:56;19.30;98.70
27803;DHT22;15182;48.174;11.562;2023-10-19T11:50:24;19.30;98.70
27803;DHT22;15182;48.174;11.562;2023-10-19T11:52:52;19.30;98.80
27803;DHT22;15182;48.174;11.562;2023-10-19T11:55:20;19.30;99.10
27803;DHT22;15182;48.174;11.562;2023-10-19T11:57:48;19.40;99.30
27803;DHT22;15182;48.174;11.562;2023-10-19T12:00:16;19.40;99.30
27803;DHT22;15182;48.174;11.562;2023-10-19T12:02:48;19.40;99.40
27803;DHT22;15182;48.174;11.562;2023-10-19T12:05:17;19.50;99.40
27803;DHT22;15182;48.174;11.562;2023-10-19T12:07:45;19.50;99.30
27803;DHT22;15182;48.174;11.562;2023-10-19T12:10:12;19.60;99.30
27803;DHT22;15182;48.174;11.562;2023-10-19T12:12:40;19.60;99.30
27803;DHT22;15182;48.174;11.562;2023-10-19T12:15:09;19.60;99.40
27803;DHT22;15182;48.174;11.562;2023-10-19T12:17:38;19.70;99.20
27803;DHT22;15182;48.174;11.562;2023-10-19T12:20:07;19.80;99.00
27803;DHT22;15182;48.174;11.562;2023-10-19T12:22:36;19.90;98.80
27803;DHT22;15182;48.174;11.562;2023-10-19T12:25:05;19.90;98.70
27803;DHT22;15182;48.174;11.562;2023-10-19T12:27:33;20.00;98.60
27803;DHT22;15182;48.174;11.562;2023-10-19T12:30:05;20.10;98.60
27803;DHT22;15182;48.174;11.562;2023-10-19T12:32:43;20.10;98.40
27803;DHT22;15182;48.174;11.562;2023-10-19T12:35:11;20.10;98.30
27803;DHT22;15182;48.174;11.562;2023-10-19T12:37:40;20.20;98.20
27803;DHT22;15182;48.174;11.562;2023-10-19T12:40:12;20.20;98.00
27803;DHT22;15182;48.174;11.562;2023-10-19T12:42:53;20.20;97.90
27803;DHT22;15182;48.174;11.562;2023-10-19T12:45:22;20.30;97.90
27803;DHT22;15182;48.174;11.562;2023-10-19T12:47:50;20.30;97.90
27803;DHT22;15182;48.174;11.562;2023-10-19T12:50:18;20.30;97.80
27803;DHT22;15182;48.174;11.562;2023-10-19T12:52:50;20.40;97.90
27803;DHT22;15182;48.174;11.562;2023-10-19T12:55:18;20.40;97.80
27803;DHT22;15182;48.174;11.562;2023-10-19T12:57:46;20.40;97.70
27803;DHT22;15182;48.174;11.562;2023-10-19T13:00:14;20.40;97.60
27803;DHT22;15182;48.174;11.562;2023-10-19T13:02:52;20.50;97.70
27803;DHT22;15182;48.174;11.562;2023-10-19T13:05:27;20.50;97.50
27803;DHT22;15182;48.174;11.562;2023-10-19T13:07:56;20.50;97.70
27803;DHT22;15182;48.174;11.562;2023-10-19T13:10:28;20.50;97.30
27803;DHT22;15182;48.174;11.562;2023-10-19T13:12:59;20.50;97.20
27803;DHT22;15182;48.174;11.562;2023-10-19T13:15:30;20.60;97.30
27803;DHT22;15182;48.174;11.562;2023-10-19T13:17:58;20.60;97.30
27803;DHT22;15182;48.174;11.562;2023-10-19T13:20:27;20.60;97.20
27803;DHT22;15182;48.174;11.562;2023-10-19T13:23:01;20.60;97.20
27803;DHT22;15182;48.174;11.562;2023-10-19T13:25:30;20.60;97.40
27803;DHT22;15182;48.174;11.562;2023-10-19T13:28:08;20.60;97.10
27803;DHT22;15182;48.174;11.562;2023-10-19T13:30:37;20.60;96.90
27803;DHT22;15182;48.174;11.562;2023-10-19T13:33:06;20.60;97.00
27803;DHT22;15182;48.174;11.562;2023-10-19T13:35:36;20.60;97.00
27803;DHT22;15182;48.174;11.562;2023-10-19T13:38:06;20.50;97.00
27803;DHT22;15182;48.174;11.562;2023-10-19T13:40:35;20.50;97.10
27803;DHT22;15182;48.174;11.562;2023-10-19T13:43:04;20.50;97.00
27803;DHT22;15182;48.174;11.562;2023-10-19T13:45:35;20.50;97.10
27803;DHT22;15182;48.174;11.562;2023-10-19T13:48:04;20.50;97.10
27803;DHT22;15182;48.174;11.562;2023-10-19T13:50:33;20.50;96.90
27803;DHT22;15182;48.174;11.562;2023-10-19T13:53:03;20.40;96.70
27803;DHT22;15182;48.174;11.562;2023-10-19T13:55:35;20.40;96.70
27803;DHT22;15182;48.174;11.562;2023-10-19T13:58:03;20.40;96.60
27803;DHT22;15182;48.174;11.562;2023-10-19T14:00:33;20.40;96.80
27803;DHT22;15182;48.174;11.562;2023-10-19T14:03:07;20.40;97.00
27803;DHT22;15182;48.174;11.562;2023-10-19T14:05:38;20.30;96.60
27803;DHT22;15182;48.174;11.562;2023-10-19T14:08:09;20.30;96.60
27803;DHT22;15182;48.174;11.562;2023-10-19T14:10:38;20.30;96.70
27803;DHT22;15182;48.174;11.562;2023-10-19T14:13:07;20.20;96.90
27803;DHT22;15182;48.174;11.562;2023-10-19T14:15:38;20.20;96.80
27803;DHT22;15182;48.174;11.562;2023-10-19T14:18:06;20.20;96.80
27803;DHT22;15182;48.174;11.562;2023-10-19T14:20:34;20.10;96.80
27803;DHT22;15182;48.174;11.562;2023-10-19T14:23:05;20.10;96.90
27803;DHT22;15182;48.174;11.562;2023-10-19T14:25:37;20.10;97.10
27803;DHT22;15182;48.174;11.562;2023-10-19T14:28:06;20.00;97.10
27803;DHT22;15182;48.174;11.562;2023-10-19T14:30:36;20.00;97.20
27803;DHT22;15182;48.174;11.562;2023-10-19T14:33:04;20.00;97.40
27803;DHT22;15182;48.174;11.562;2023-10-19T14:35:37;20.00;97.60
27803;DHT22;15182;48.174;11.562;2023-10-19T14:38:08;20.00;97.70
27803;DHT22;15182;48.174;11.562;2023-10-19T14:40:41;19.90;97.80
27803;DHT22;15182;48.174;11.562;2023-10-19T14:43:11;19.90;98.00
27803;DHT22;15182;48.174;11.562;2023-10-19T14:45:40;19.90;98.40
27803;DHT22;15182;48.174;11.562;2023-10-19T14:48:08;19.90;98.20
27803;DHT22;15182;48.174;11.562;2023-10-19T14:50:37;19.90;98.30
27803;DHT22;15182;48.174;11.562;2023-10-19T14:53:05;19.90;98.40
27803;DHT22;15182;48.174;11.562;2023-10-19T14:55:33;19.80;98.30
27803;DHT22;15182;48.174;11.562;2023-10-19T14:58:02;19.80;98.30
27803;DHT22;15182;48.174;11.562;2023-10-19T15:00:32;19.80;98.40
27803;DHT22;15182;48.174;11.562;2023-10-19T15:03:04;19.80;98.40
27803;DHT22;15182;48.174;11.562;2023-10-19T15:05:35;19.80;98.40
27803;DHT22;15182;48.174;11.562;2023-10-19T15:08:04;19.70;98.40
27803;DHT22;15182;48.174;11.562;2023-10-19T15:10:34;19.70;98.50
27803;DHT22;15182;48.174;11.562;2023-10-19T15:13:04;19.70;98.50
27803;DHT22;15182;48.174;11.562;2023-10-19T15:15:32;19.70;98.50
27803;DHT22;15182;48.174;11.562;2023-10-19T15:18:00;19.60;98.50
27803;DHT22;15182;48.174;11.562;2023-10-19T15:20:30;19.60;98.60
27803;DHT22;15182;48.174;11.562;2023-10-19T15:22:59;19.60;98.70
27803;DHT22;15182;48.174;11.562;2023-10-19T15:25:27;19.60;98.70
27803;DHT22;15182;48.174;11.562;2023-10-19T15:27:55;19.50;98.60
27803;DHT22;15182;48.174;11.562;2023-10-19T15:30:25;19.50;98.60
27803;DHT22;15182;48.174;11.562;2023-10-19T15:32:54;19.50;98.70
27803;DHT22;15182;48.174;11.562;2023-10-19T15:35:22;19.50;98.70